Time;durP1;ratioP1;P1;durP2;ratioP2;P2;SDS_P1;SDS_P2;PMS_P1;PMS_P2;Temp;Humidity;BMP_temperature;BMP_pressure;BME280_temperature;BME280_humidity;BME280_pressure;Samples;Min_cycle;Max_cycle;Signal;HPM_P1;HPM_P2
2023/06/29 00:01:32;;;;;;;31.73;23.67;;;18.50;99.90;;;;;;5046610;28;20389;-79
2023/06/29 00:03:58;;;;;;;30.77;23.98;;;18.50;99.90;;;;;;5049228;28;20451;-79
2023/06/29 00:06:24;;;;;;;29.58;22.88;;;18.50;99.90;;;;;;5047766;28;20036;-79
2023/06/29 00:08:49;;;;;;;34.45;25.35;;;18.50;99.90;;;;;;5030901;28;20091;-79
2023/06/29 00:11:15;;;;;;;32.13;23.52;;;18.50;99.90;;;;;;5037058;28;20044;-79
2023/06/29 00:13:41;;;;;;;33.08;25.52;;;18.50;99.90;;;;;;5049772;28;20048;-79
2023/06/29 00:16:07;;;;;;;30.75;22.92;;;18.50;99.90;;;;;;5049226;28;20048;-79
2023/06/29 00:18:33;;;;;;;37.25;25.60;;;18.50;99.90;;;;;;5037241;28;20404;-79
2023/06/29 00:21:01;;;;;;;35.92;24.52;;;18.50;99.90;;;;;;5047336;28;20040;-79
2023/06/29 00:23:26;;;;;;;37.00;25.40;;;18.50;99.90;;;;;;5048704;28;20080;-79
2023/06/29 00:25:53;;;;;;;34.83;25.00;;;18.50;99.90;;;;;;5050067;28;20069;-79
2023/06/29 00:28:18;;;;;;;34.65;24.88;;;18.50;99.90;;;;;;5048496;28;20080;-79
2023/06/29 00:30:44;;;;;;;33.72;24.98;;;18.50;99.90;;;;;;5048477;28;20539;-79
2023/06/29 00:33:09;;;;;;;37.22;25.70;;;18.50;99.90;;;;;;5047809;28;20033;-79
2023/06/29 00:35:35;;;;;;;32.90;23.85;;;18.50;99.90;;;;;;5048802;28;20037;-79
2023/06/29 00:38:01;;;;;;;34.08;24.45;;;18.50;99.90;;;;;;5041620;28;20060;-79
2023/06/29 00:40:26;;;;;;;37.35;26.27;;;18.50;99.90;;;;;;5053731;28;20044;-79
2023/06/29 00:42:52;;;;;;;32.63;23.42;;;18.50;99.90;;;;;;5051394;28;20048;-79
2023/06/29 00:45:18;;;;;;;31.65;24.55;;;18.50;99.90;;;;;;5033718;28;20045;-79
2023/06/29 00:47:44;;;;;;;33.53;23.10;;;18.50;99.90;;;;;;5051988;28;20043;-80
2023/06/29 00:50:10;;;;;;;37.05;25.52;;;18.50;99.90;;;;;;5053233;28;20527;-79
2023/06/29 00:52:36;;;;;;;40.10;27.23;;;18.50;99.90;;;;;;5052585;28;20147;-79
2023/06/29 00:55:02;;;;;;;31.33;22.90;;;18.50;99.90;;;;;;5035110;28;20120;-79
2023/06/29 00:57:29;;;;;;;34.55;25.05;;;18.50;99.90;;;;;;5035720;28;20044;-80
2023/06/29 00:59:59;;;;;;;34.20;24.00;;;18.40;99.90;;;;;;5051767;28;20048;-79
2023/06/29 01:02:25;;;;;;;37.28;25.70;;;18.50;99.90;;;;;;5053318;28;20052;-79
2023/06/29 01:04:51;;;;;;;39.10;25.02;;;18.40;99.90;;;;;;5052911;28;20033;-80
2023/06/29 01:07:17;;;;;;;38.53;26.73;;;18.40;99.90;;;;;;5053584;28;20493;-80
2023/06/29 01:09:44;;;;;;;33.53;24.02;;;18.40;99.90;;;;;;5051685;28;20045;-80
2023/06/29 01:12:13;;;;;;;37.53;26.77;;;18.40;99.90;;;;;;5040615;28;20121;-79
2023/06/29 01:14:40;;;;;;;35.17;26.85;;;18.40;99.90;;;;;;5049639;28;20033;-79
2023/06/29 01:17:11;;;;;;;38.55;24.95;;;18.40;99.90;;;;;;5052646;28;20583;-79
2023/06/29 01:19:38;;;;;;;36.30;25.88;;;18.40;99.90;;;;;;5052690;28;20562;-79
2023/06/29 01:22:14;;;;;;;36.22;25.90;;;18.40;99.90;;;;;;5048722;28;20051;-79
2023/06/29 01:24:40;;;;;;;37.30;26.70;;;18.40;99.90;;;;;;5051517;28;20487;-79
2023/06/29 01:27:12;;;;;;;38.95;26.00;;;18.40;99.90;;;;;;5051391;28;20045;-79
2023/06/29 01:29:38;;;;;;;38.92;26.75;;;18.40;99.90;;;;;;5052035;28;20128;-79
2023/06/29 01:32:06;;;;;;;36.15;25.23;;;18.40;99.90;;;;;;5052786;28;20119;-80
2023/06/29 01:34:31;;;;;;;38.78;26.35;;;18.40;99.90;;;;;;5052162;28;20048;-79
2023/06/29 01:37:11;;;;;;;37.55;26.88;;;18.30;99.90;;;;;;5051980;28;20503;-79
2023/06/29 01:40:00;;;;;;;32.58;24.13;;;18.40;99.90;;;;;;5052191;28;20045;-79
2023/06/29 01:42:26;;;;;;;36.72;25.90;;;18.40;99.90;;;;;;5050811;28;20056;-79
2023/06/29 01:44:54;;;;;;;34.92;24.98;;;18.40;99.90;;;;;;5050016;28;20068;-79
2023/06/29 01:47:20;;;;;;;36.38;25.63;;;18.30;99.90;;;;;;5052451;28;20040;-79
2023/06/29 01:49:46;;;;;;;35.63;26.20;;;18.40;99.90;;;;;;5050738;28;20072;-79
2023/06/29 01:52:12;;;;;;;39.17;26.90;;;18.30;99.90;;;;;;5050763;28;20558;-79
2023/06/29 01:54:37;;;;;;;37.10;26.15;;;18.30;99.90;;;;;;5051361;28;20033;-79
2023/06/29 01:57:06;;;;;;;37.90;27.38;;;18.30;99.90;;;;;;5045164;28;20102;-79
2023/06/29 01:59:32;;;;;;;35.85;25.10;;;18.30;99.90;;;;;;5050559;28;20037;-80
2023/06/29 02:01:58;;;;;;;38.83;24.77;;;18.30;99.90;;;;;;5047503;28;20174;-80
2023/06/29 02:04:23;;;;;;;37.08;25.92;;;18.30;99.90;;;;;;5052473;28;20084;-79
2023/06/29 02:06:49;;;;;;;37.97;25.83;;;18.30;99.90;;;;;;5051252;28;20036;-79
2023/06/29 02:09:15;;;;;;;35.92;26.23;;;18.30;99.90;;;;;;5034513;28;20091;-80
2023/06/29 02:11:40;;;;;;;36.65;25.60;;;18.30;99.90;;;;;;5049550;28;20041;-80
2023/06/29 02:14:06;;;;;;;39.13;28.63;;;18.30;99.90;;;;;;5050850;28;20381;-79
2023/06/29 02:16:31;;;;;;;36.25;25.98;;;18.30;99.90;;;;;;5050879;28;20032;-79
2023/06/29 02:18:57;;;;;;;42.42;28.98;;;18.30;99.90;;;;;;5034824;28;20415;-79
2023/06/29 02:21:23;;;;;;;37.42;25.63;;;18.30;99.90;;;;;;5051866;28;20044;-79
2023/06/29 02:23:48;;;;;;;36.67;25.60;;;18.30;99.90;;;;;;5051614;28;20037;-80
2023/06/29 02:26:14;;;;;;;37.10;25.85;;;18.30;99.90;;;;;;5051460;28;20041;-79
2023/06/29 02:28:39;;;;;;;36.72;26.60;;;18.30;99.90;;;;;;5051629;28;20037;-79
2023/06/29 02:31:05;;;;;;;39.40;25.98;;;18.30;99.90;;;;;;5051859;28;20045;-79
2023/06/29 02:33:30;;;;;;;37.08;25.58;;;18.20;99.90;;;;;;5047224;28;20033;-80
2023/06/29 02:35:56;;;;;;;34.20;25.05;;;18.30;99.90;;;;;;5050486;28;20037;-80
2023/06/29 02:38:21;;;;;;;41.88;28.30;;;18.20;99.90;;;;;;5051383;28;20459;-79
2023/06/29 02:40:47;;;;;;;37.80;26.27;;;18.30;99.90;;;;;;5051407;28;20037;-79
2023/06/29 02:43:14;;;;;;;34.55;25.55;;;18.30;99.90;;;;;;5050798;28;20044;-80
2023/06/29 02:45:39;;;;;;;41.05;26.75;;;18.20;99.90;;;;;;5034827;28;20120;-80
2023/06/29 02:48:05;;;;;;;38.30;25.83;;;18.20;99.90;;;;;;5051071;28;20475;-79
2023/06/29 02:50:30;;;;;;;38.97;26.98;;;18.20;99.90;;;;;;5050914;28;20523;-80
2023/06/29 02:52:56;;;;;;;38.15;26.08;;;18.20;99.90;;;;;;5051062;28;20032;-79
2023/06/29 02:55:23;;;;;;;38.50;27.45;;;18.20;99.90;;;;;;5050854;28;20076;-79
2023/06/29 02:57:48;;;;;;;39.55;26.40;;;18.20;99.90;;;;;;5049735;28;20508;-79
2023/06/29 03:00:14;;;;;;;35.80;24.67;;;18.20;99.90;;;;;;5051380;28;20075;-79
2023/06/29 03:02:40;;;;;;;38.30;28.40;;;18.20;99.90;;;;;;5050603;28;20047;-79
2023/06/29 03:05:06;;;;;;;34.03;25.95;;;18.20;99.90;;;;;;5052223;28;20040;-79
2023/06/29 03:07:32;;;;;;;40.53;26.73;;;18.20;99.90;;;;;;5054889;28;20504;-79
2023/06/29 03:09:58;;;;;;;38.58;26.98;;;18.20;99.90;;;;;;5051522;28;20041;-79
2023/06/29 03:12:24;;;;;;;39.33;27.13;;;18.20;99.90;;;;;;5050745;28;20040;-79
2023/06/29 03:14:49;;;;;;;34.25;24.20;;;18.20;99.90;;;;;;5050558;28;20119;-79
2023/06/29 03:17:15;;;;;;;35.88;24.52;;;18.20;99.90;;;;;;5048615;28;20396;-79
2023/06/29 03:19:40;;;;;;;37.80;26.70;;;18.20;99.90;;;;;;5049498;28;20036;-79
2023/06/29 03:22:06;;;;;;;35.30;25.77;;;18.20;99.90;;;;;;5050379;28;20194;-79
2023/06/29 03:24:32;;;;;;;37.38;27.00;;;18.20;99.90;;;;;;5049276;28;20117;-80
2023/06/29 03:26:57;;;;;;;33.65;24.92;;;18.20;99.90;;;;;;5049538;28;20398;-79
2023/06/29 03:29:23;;;;;;;36.58;23.75;;;18.20;99.90;;;;;;5049762;28;20516;-79
2023/06/29 03:31:48;;;;;;;37.78;24.33;;;18.20;99.90;;;;;;5049697;28;20032;-80
2023/06/29 03:34:14;;;;;;;35.97;25.60;;;18.20;99.90;;;;;;5049674;28;20076;-80
2023/06/29 03:36:39;;;;;;;36.13;25.75;;;18.20;99.90;;;;;;5048080;28;20565;-80
2023/06/29 03:39:05;;;;;;;36.00;24.67;;;18.20;99.90;;;;;;5033100;28;20041;-79
2023/06/29 03:41:30;;;;;;;32.72;24.17;;;18.20;99.90;;;;;;5049536;28;20424;-79
2023/06/29 03:43:56;;;;;;;35.28;24.75;;;18.20;99.90;;;;;;5049068;28;20044;-80
2023/06/29 03:46:23;;;;;;;34.88;24.05;;;18.30;99.90;;;;;;5050692;28;20044;-80
2023/06/29 03:48:48;;;;;;;34.70;25.13;;;18.30;99.90;;;;;;5049734;28;20071;-80
2023/06/29 03:51:14;;;;;;;34.92;24.63;;;18.30;99.90;;;;;;5049799;28;20377;-80
2023/06/29 03:53:39;;;;;;;32.58;23.73;;;18.30;99.90;;;;;;5049202;28;20040;-80
2023/06/29 03:56:05;;;;;;;33.25;23.75;;;18.30;99.90;;;;;;5049117;28;20479;-80
2023/06/29 03:58:30;;;;;;;33.78;24.70;;;18.30;99.90;;;;;;5047824;28;20731;-80
2023/06/29 04:00:56;;;;;;;33.85;24.42;;;18.30;99.90;;;;;;5048570;28;20040;-80
2023/06/29 04:03:21;;;;;;;32.70;23.05;;;18.40;99.90;;;;;;5049907;28;20377;-80
2023/06/29 04:05:47;;;;;;;35.95;24.48;;;18.40;99.90;;;;;;5048956;28;20032;-80
2023/06/29 04:08:13;;;;;;;31.77;22.85;;;18.40;99.90;;;;;;5050337;28;20073;-80
2023/06/29 04:10:38;;;;;;;31.83;21.90;;;18.40;99.90;;;;;;5051683;28;20404;-80
2023/06/29 04:13:05;;;;;;;31.25;21.85;;;18.40;99.90;;;;;;5046545;28;20033;-80
2023/06/29 04:15:31;;;;;;;31.70;22.35;;;18.40;99.90;;;;;;5048795;28;20048;-80
2023/06/29 04:17:56;;;;;;;29.83;21.25;;;18.50;99.90;;;;;;5062862;28;20033;-80
2023/06/29 04:20:22;;;;;;;31.15;21.88;;;18.50;99.90;;;;;;5049321;28;20125;-80
2023/06/29 04:22:47;;;;;;;31.85;22.58;;;18.50;99.90;;;;;;5048863;28;20108;-80
2023/06/29 04:25:13;;;;;;;30.13;21.42;;;18.60;99.90;;;;;;5041727;28;20451;-80
2023/06/29 04:27:38;;;;;;;30.80;21.63;;;18.60;99.90;;;;;;5032506;28;20044;-80
2023/06/29 04:30:04;;;;;;;29.35;21.38;;;18.60;99.90;;;;;;5049167;28;20037;-80
2023/06/29 04:32:30;;;;;;;32.45;21.77;;;18.60;99.90;;;;;;5047194;28;20533;-81
2023/06/29 04:34:56;;;;;;;31.92;21.25;;;18.60;99.90;;;;;;5046410;28;20037;-80
2023/06/29 04:37:22;;;;;;;29.98;20.98;;;18.70;99.90;;;;;;5048397;28;20040;-80
2023/06/29 04:39:47;;;;;;;30.63;22.63;;;18.70;99.90;;;;;;5048226;28;20037;-80
2023/06/29 04:42:13;;;;;;;31.05;21.30;;;18.80;99.90;;;;;;5048656;28;20067;-80
2023/06/29 04:44:39;;;;;;;29.50;20.88;;;18.90;99.90;;;;;;5049114;28;20055;-80
2023/06/29 04:47:05;;;;;;;31.92;20.85;;;18.90;99.90;;;;;;5048758;28;20611;-80
2023/06/29 04:49:32;;;;;;;29.98;20.95;;;19.00;99.90;;;;;;5048673;28;20073;-80
2023/06/29 04:52:00;;;;;;;33.28;20.30;;;19.10;99.90;;;;;;5048826;28;20500;-80
2023/06/29 04:54:27;;;;;;;26.67;19.58;;;19.10;99.90;;;;;;5053534;28;20032;-80
2023/06/29 04:56:53;;;;;;;27.88;18.92;;;19.20;99.90;;;;;;5045943;28;20334;-80
2023/06/29 04:59:22;;;;;;;25.45;18.77;;;19.20;99.90;;;;;;5048871;28;20029;-80
2023/06/29 05:01:47;;;;;;;26.20;18.92;;;19.20;99.90;;;;;;5055737;28;20045;-80
2023/06/29 05:04:13;;;;;;;23.85;17.58;;;19.20;99.90;;;;;;5047171;28;20530;-81
2023/06/29 05:06:38;;;;;;;26.48;18.27;;;19.20;99.90;;;;;;5048980;28;20045;-80
2023/06/29 05:09:04;;;;;;;29.30;19.67;;;19.20;99.90;;;;;;5048393;28;20043;-80
2023/06/29 05:11:29;;;;;;;26.52;18.48;;;19.20;99.90;;;;;;5048735;28;20043;-80
2023/06/29 05:13:55;;;;;;;26.38;18.17;;;19.20;99.90;;;;;;5043031;28;20038;-80
2023/06/29 05:16:21;;;;;;;27.25;17.35;;;19.20;99.90;;;;;;5048025;28;20090;-80
2023/06/29 05:18:46;;;;;;;23.98;17.70;;;19.20;99.90;;;;;;5049049;28;20037;-80
2023/06/29 05:21:14;;;;;;;23.85;17.48;;;19.30;99.90;;;;;;5049451;28;20041;-80
2023/06/29 05:23:39;;;;;;;23.25;16.67;;;19.30;99.90;;;;;;5047991;28;20068;-80
2023/06/29 05:26:05;;;;;;;23.80;16.90;;;19.30;99.90;;;;;;5052030;28;20083;-80
2023/06/29 05:28:31;;;;;;;23.05;16.33;;;19.30;99.90;;;;;;5052749;28;20466;-80
2023/06/29 05:30:57;;;;;;;24.10;17.45;;;19.30;99.90;;;;;;5052221;28;20041;-80
2023/06/29 05:33:23;;;;;;;25.13;17.08;;;19.40;99.90;;;;;;5053369;28;20047;-80
2023/06/29 05:35:48;;;;;;;24.05;17.25;;;19.40;99.90;;;;;;5051400;28;20025;-81
2023/06/29 05:38:14;;;;;;;23.40;17.70;;;19.40;99.90;;;;;;5051909;28;20510;-80
2023/06/29 05:40:39;;;;;;;22.05;16.20;;;19.50;99.90;;;;;;5052929;28;20615;-80
2023/06/29 05:43:05;;;;;;;23.88;16.35;;;19.60;99.90;;;;;;5052499;28;20048;-80
2023/06/29 05:45:30;;;;;;;20.48;15.30;;;19.60;99.90;;;;;;5052000;28;20120;-80
2023/06/29 05:47:56;;;;;;;21.50;15.93;;;19.70;99.90;;;;;;5052040;28;20531;-80
2023/06/29 05:50:21;;;;;;;21.95;16.08;;;19.80;99.90;;;;;;5051738;28;20037;-80
2023/06/29 05:52:47;;;;;;;22.88;16.60;;;19.90;99.90;;;;;;5034820;28;20036;-80
2023/06/29 05:55:13;;;;;;;27.67;16.17;;;20.00;99.90;;;;;;5035285;28;20564;-80
2023/06/29 05:57:38;;;;;;;22.25;17.23;;;20.10;99.90;;;;;;5051645;28;20037;-80
2023/06/29 06:00:09;;;;;;;23.65;16.55;;;20.10;99.90;;;;;;5051539;28;20033;-80
2023/06/29 06:02:36;;;;;;;21.48;16.38;;;20.20;99.90;;;;;;5052169;28;20044;-80
2023/06/29 06:05:02;;;;;;;24.27;15.65;;;20.20;99.90;;;;;;5052053;28;20037;-80
2023/06/29 06:07:28;;;;;;;23.45;16.38;;;20.20;99.90;;;;;;5051467;28;20048;-80
2023/06/29 06:09:54;;;;;;;21.35;16.63;;;20.20;99.90;;;;;;5051465;28;20051;-80
2023/06/29 06:12:20;;;;;;;26.35;16.63;;;20.20;99.90;;;;;;5039689;28;20080;-81
2023/06/29 06:14:45;;;;;;;20.67;15.55;;;20.20;99.90;;;;;;5051349;28;20473;-80
2023/06/29 06:17:11;;;;;;;21.10;15.80;;;20.20;99.90;;;;;;5052128;28;20028;-80
2023/06/29 06:19:36;;;;;;;23.52;15.15;;;20.20;99.90;;;;;;5051387;28;20045;-80
2023/06/29 06:22:03;;;;;;;21.65;15.60;;;20.30;99.90;;;;;;5050463;28;20041;-80
2023/06/29 06:24:28;;;;;;;22.55;15.52;;;20.20;99.90;;;;;;5052292;28;20556;-80
2023/06/29 06:26:54;;;;;;;20.60;14.95;;;20.30;99.90;;;;;;5051496;28;20133;-80
2023/06/29 06:29:19;;;;;;;22.15;14.15;;;20.30;99.90;;;;;;5051214;28;20041;-80
2023/06/29 06:31:45;;;;;;;22.42;14.90;;;20.30;99.90;;;;;;5051137;28;20507;-80
2023/06/29 06:34:10;;;;;;;20.55;15.07;;;20.30;99.90;;;;;;5049526;28;20044;-80
2023/06/29 06:36:36;;;;;;;20.02;14.88;;;20.40;99.90;;;;;;5032735;28;20033;-80
2023/06/29 06:39:01;;;;;;;22.50;15.95;;;20.40;99.90;;;;;;5050936;28;20420;-80
2023/06/29 06:41:27;;;;;;;24.77;16.50;;;20.50;99.90;;;;;;5051261;28;20397;-80
2023/06/29 06:43:53;;;;;;;25.42;16.02;;;20.50;99.90;;;;;;5050138;28;20048;-80
2023/06/29 06:46:18;;;;;;;26.63;16.45;;;20.50;99.90;;;;;;5051400;28;20041;-80
2023/06/29 06:48:44;;;;;;;24.38;16.30;;;20.50;99.90;;;;;;5050036;28;20072;-80
2023/06/29 06:51:09;;;;;;;22.50;15.88;;;20.60;99.90;;;;;;5049312;28;20659;-81
2023/06/29 06:53:35;;;;;;;22.60;15.30;;;20.60;99.90;;;;;;5050358;28;20060;-81
2023/06/29 06:56:00;;;;;;;21.42;16.10;;;20.70;99.90;;;;;;5047808;28;20441;-81
2023/06/29 06:58:26;;;;;;;23.10;16.27;;;20.70;99.90;;;;;;5050297;28;20124;-81
2023/06/29 07:00:52;;;;;;;21.45;16.33;;;20.70;99.90;;;;;;5050505;28;20127;-80
2023/06/29 07:03:19;;;;;;;24.80;16.58;;;20.70;99.90;;;;;;5048840;28;20068;-80
2023/06/29 07:05:45;;;;;;;20.67;14.98;;;20.70;99.90;;;;;;5048820;28;20087;-80
2023/06/29 07:08:11;;;;;;;21.30;15.40;;;20.80;99.90;;;;;;5046585;28;20047;-80
2023/06/29 07:10:36;;;;;;;21.30;14.98;;;20.80;99.90;;;;;;5050217;28;20120;-80
2023/06/29 07:13:02;;;;;;;20.83;14.82;;;20.80;99.90;;;;;;5046766;28;20068;-79
2023/06/29 07:15:27;;;;;;;21.27;15.13;;;20.90;99.90;;;;;;5041869;28;20048;-80
2023/06/29 07:17:53;;;;;;;21.83;15.23;;;20.90;99.90;;;;;;5049396;28;20065;-80
2023/06/29 07:20:19;;;;;;;23.80;15.23;;;20.90;99.90;;;;;;5049993;28;20105;-80
2023/06/29 07:22:44;;;;;;;20.85;14.73;;;21.00;99.90;;;;;;5049039;28;20528;-80
2023/06/29 07:25:11;;;;;;;21.80;15.25;;;21.00;99.90;;;;;;5048891;28;20488;-80
2023/06/29 07:27:39;;;;;;;23.75;15.55;;;21.00;99.90;;;;;;5049611;28;20045;-79
2023/06/29 07:30:06;;;;;;;23.10;15.15;;;21.00;99.90;;;;;;5049474;28;20106;-80
2023/06/29 07:32:31;;;;;;;22.08;14.48;;;21.00;99.90;;;;;;5049617;28;20044;-76
2023/06/29 07:34:57;;;;;;;23.38;16.33;;;20.90;99.90;;;;;;5050195;28;20041;-80
2023/06/29 07:37:23;;;;;;;22.65;15.93;;;20.90;99.90;;;;;;5049193;28;20096;-81
2023/06/29 07:39:48;;;;;;;21.70;15.38;;;20.80;99.90;;;;;;5049659;28;20500;-80
2023/06/29 07:42:14;;;;;;;23.00;14.90;;;20.80;99.90;;;;;;5048823;28;20386;-80
2023/06/29 07:44:39;;;;;;;23.65;16.08;;;20.80;99.90;;;;;;5050264;28;20559;-81
2023/06/29 07:47:06;;;;;;;26.42;17.05;;;20.80;99.90;;;;;;5049327;28;20068;-80
2023/06/29 07:49:31;;;;;;;24.80;17.50;;;20.80;99.90;;;;;;5049429;28;20073;-79
2023/06/29 07:51:57;;;;;;;23.38;16.40;;;20.80;99.90;;;;;;5033014;28;20357;-79
2023/06/29 07:54:23;;;;;;;26.77;18.08;;;20.60;99.90;;;;;;5048188;28;20667;-80
2023/06/29 07:56:49;;;;;;;23.85;15.82;;;20.60;99.90;;;;;;5049291;28;20040;-79
2023/06/29 07:59:15;;;;;;;28.52;17.75;;;20.60;99.90;;;;;;5049809;28;20044;-79
2023/06/29 08:01:40;;;;;;;23.33;16.45;;;20.60;99.90;;;;;;5050008;28;20037;-79
2023/06/29 08:04:07;;;;;;;27.25;19.20;;;20.70;99.90;;;;;;5049607;28;20059;-79
2023/06/29 08:06:33;;;;;;;24.42;16.70;;;20.70;99.90;;;;;;5049775;28;20047;-79
2023/06/29 08:09:00;;;;;;;27.73;18.75;;;20.80;99.90;;;;;;5033066;28;20033;-79
2023/06/29 08:11:26;;;;;;;26.25;18.88;;;20.90;99.90;;;;;;5049536;28;20048;-79
2023/06/29 08:13:52;;;;;;;26.20;18.85;;;21.00;99.90;;;;;;5049579;28;20048;-80
2023/06/29 08:16:17;;;;;;;29.25;20.20;;;21.10;99.90;;;;;;5050067;28;20032;-79
2023/06/29 08:18:43;;;;;;;29.05;20.05;;;21.20;99.90;;;;;;5049828;28;20041;-82
2023/06/29 08:21:10;;;;;;;27.75;18.95;;;21.20;99.90;;;;;;5049175;28;20108;-79
2023/06/29 08:23:36;;;;;;;29.15;20.85;;;21.40;99.90;;;;;;5049695;28;20599;-80
2023/06/29 08:26:03;;;;;;;25.75;19.02;;;21.50;99.90;;;;;;5042006;28;20043;-80
2023/06/29 08:28:28;;;;;;;25.33;18.15;;;21.60;99.90;;;;;;5040234;28;20036;-79
2023/06/29 08:30:54;;;;;;;27.17;20.05;;;21.70;99.90;;;;;;5041245;28;20051;-79
2023/06/29 08:33:20;;;;;;;28.02;17.52;;;21.70;99.90;;;;;;5046097;28;20059;-79
2023/06/29 08:35:45;;;;;;;28.77;19.48;;;21.80;99.90;;;;;;5046307;28;20040;-80
2023/06/29 08:38:11;;;;;;;22.33;17.50;;;21.90;99.90;;;;;;5050382;28;20049;-80
2023/06/29 08:40:39;;;;;;;26.15;17.95;;;22.00;99.90;;;;;;5059996;28;20037;-80
2023/06/29 08:43:05;;;;;;;26.70;17.95;;;22.20;99.90;;;;;;5047094;28;20071;-81
2023/06/29 08:45:30;;;;;;;23.70;17.55;;;22.30;99.90;;;;;;5049419;28;20037;-80
2023/06/29 08:47:56;;;;;;;23.58;16.83;;;22.30;99.90;;;;;;5049375;28;20557;-80
2023/06/29 08:50:27;;;;;;;28.02;20.75;;;22.30;99.90;;;;;;5049018;28;20045;-80
2023/06/29 08:52:54;;;;;;;25.50;17.35;;;22.30;99.90;;;;;;5042669;28;20045;-79
2023/06/29 08:55:20;;;;;;;22.88;16.48;;;22.30;99.90;;;;;;5046509;28;20048;-79
2023/06/29 08:57:45;;;;;;;36.38;18.58;;;22.20;99.90;;;;;;5048804;28;20488;-80
2023/06/29 09:00:13;;;;;;;26.48;18.02;;;22.30;99.90;;;;;;5048112;28;20052;-79
2023/06/29 09:02:39;;;;;;;26.23;20.25;;;22.20;99.90;;;;;;5048896;28;20041;-80
2023/06/29 09:05:05;;;;;;;24.15;17.08;;;22.20;99.90;;;;;;5048933;28;20041;-78
2023/06/29 09:07:31;;;;;;;26.10;18.73;;;22.10;99.90;;;;;;5050454;28;20044;-79
2023/06/29 09:09:57;;;;;;;27.48;20.83;;;22.20;99.90;;;;;;5052546;28;20642;-79
2023/06/29 09:12:23;;;;;;;26.50;18.75;;;22.20;99.90;;;;;;5055986;28;20037;-80
2023/06/29 09:14:48;;;;;;;24.63;17.98;;;22.10;99.90;;;;;;5038395;28;20026;-79
2023/06/29 09:17:16;;;;;;;25.60;18.45;;;22.20;99.90;;;;;;5051096;28;20454;-79
2023/06/29 09:19:56;;;;;;;26.80;19.25;;;22.30;99.90;;;;;;5050577;28;20040;-80
2023/06/29 09:22:21;;;;;;;25.70;19.80;;;22.40;99.90;;;;;;5051966;28;20048;-80
2023/06/29 09:24:48;;;;;;;24.33;18.25;;;22.40;99.90;;;;;;5049668;28;20041;-80
2023/06/29 09:27:13;;;;;;;28.58;19.27;;;22.40;99.90;;;;;;5049600;28;20048;-79
2023/06/29 09:29:39;;;;;;;26.23;19.67;;;22.40;99.90;;;;;;5051213;28;20033;-80
2023/06/29 09:32:12;;;;;;;26.48;19.38;;;22.30;99.90;;;;;;5050080;28;20033;-82
2023/06/29 09:34:47;;;;;;;26.65;19.00;;;22.30;99.90;;;;;;5051910;28;20040;-80
2023/06/29 09:37:15;;;;;;;26.15;19.95;;;22.20;99.90;;;;;;5049689;28;20033;-80
2023/06/29 09:39:56;;;;;;;26.10;18.85;;;22.10;99.90;;;;;;5050297;28;20048;-80
2023/06/29 09:42:23;;;;;;;27.00;18.55;;;22.10;99.90;;;;;;5045513;28;20071;-79
2023/06/29 09:44:49;;;;;;;24.30;17.67;;;22.10;99.90;;;;;;5046543;28;20033;-79
2023/06/29 09:47:14;;;;;;;23.33;17.05;;;22.20;99.90;;;;;;5050753;28;20076;-80
2023/06/29 09:49:48;;;;;;;25.17;17.95;;;22.20;99.90;;;;;;5049507;28;20072;-80
2023/06/29 09:52:14;;;;;;;24.05;17.70;;;22.30;99.90;;;;;;5051704;28;20044;-80
2023/06/29 09:54:40;;;;;;;25.48;17.85;;;22.30;99.90;;;;;;5052637;28;20473;-79
2023/06/29 09:57:07;;;;;;;26.58;18.25;;;22.30;99.90;;;;;;5040871;28;20076;-80
2023/06/29 09:59:45;;;;;;;24.98;17.80;;;22.40;99.90;;;;;;5034616;28;20041;-80
2023/06/29 10:02:15;;;;;;;23.52;17.38;;;22.50;99.90;;;;;;5052259;28;20072;-80
2023/06/29 10:04:41;;;;;;;24.17;18.48;;;22.50;99.90;;;;;;5046948;28;20465;-80
2023/06/29 10:07:11;;;;;;;25.58;18.25;;;22.40;99.90;;;;;;5044486;28;20045;-80
2023/06/29 10:09:42;;;;;;;22.85;17.13;;;22.30;99.90;;;;;;5052217;28;20043;-79
2023/06/29 10:12:10;;;;;;;23.70;16.38;;;22.20;99.90;;;;;;5050102;28;20122;-79
2023/06/29 10:14:37;;;;;;;23.35;18.38;;;22.20;99.90;;;;;;5052063;28;20037;-79
2023/06/29 10:17:07;;;;;;;20.40;16.52;;;22.20;99.90;;;;;;5035277;28;20120;-79
2023/06/29 10:19:34;;;;;;;26.05;19.02;;;22.10;99.90;;;;;;5052894;28;20504;-79
2023/06/29 10:22:05;;;;;;;23.42;17.65;;;22.00;99.90;;;;;;5048956;28;20363;-79
2023/06/29 10:24:36;;;;;;;24.73;18.33;;;21.90;99.90;;;;;;5047509;28;20120;-79
2023/06/29 10:27:04;;;;;;;24.33;18.60;;;21.80;99.90;;;;;;5042618;28;20120;-81
2023/06/29 10:29:30;;;;;;;25.55;20.10;;;21.70;99.90;;;;;;5049635;28;20080;-80
2023/06/29 10:31:57;;;;;;;23.67;18.77;;;21.70;99.90;;;;;;5047897;28;20472;-80
2023/06/29 10:34:26;;;;;;;24.15;18.10;;;21.60;99.90;;;;;;5045151;28;20115;-80
2023/06/29 10:36:54;;;;;;;24.65;18.83;;;21.60;99.90;;;;;;5050392;28;20112;-79
2023/06/29 10:39:42;;;;;;;24.85;18.75;;;21.60;99.90;;;;;;5035264;28;20047;-80
2023/06/29 10:42:11;;;;;;;27.23;19.27;;;21.60;99.90;;;;;;5044460;28;20045;-80
2023/06/29 10:44:37;;;;;;;22.38;17.48;;;21.60;99.90;;;;;;5045460;28;20079;-79
2023/06/29 10:47:03;;;;;;;25.38;18.65;;;21.70;99.90;;;;;;5051165;28;20481;-82
2023/06/29 10:49:29;;;;;;;22.30;16.92;;;21.70;99.90;;;;;;5044556;28;20052;-80
2023/06/29 10:52:00;;;;;;;22.90;18.00;;;21.70;99.90;;;;;;5065803;28;20034;-80
2023/06/29 10:54:26;;;;;;;25.73;17.55;;;21.90;99.90;;;;;;5046933;28;20098;-79
2023/06/29 10:57:05;;;;;;;23.08;17.55;;;22.10;99.90;;;;;;5047297;28;20148;-79
2023/06/29 10:59:36;;;;;;;25.42;18.20;;;22.20;99.90;;;;;;5035213;28;20052;-80
2023/06/29 11:02:03;;;;;;;21.85;17.50;;;22.30;99.90;;;;;;5066708;28;20501;-80
2023/06/29 11:04:29;;;;;;;22.88;17.13;;;22.40;99.90;;;;;;5034514;28;20071;-80
2023/06/29 11:06:54;;;;;;;22.85;17.02;;;22.40;99.90;;;;;;5031860;28;20406;-79
2023/06/29 11:09:20;;;;;;;24.42;18.20;;;22.50;99.90;;;;;;5049312;28;20488;-81
2023/06/29 11:11:47;;;;;;;25.80;20.48;;;22.60;99.90;;;;;;5053105;28;20124;-81
2023/06/29 11:14:13;;;;;;;24.95;18.73;;;22.70;99.90;;;;;;5049849;28;20123;-80
2023/06/29 11:16:39;;;;;;;24.90;18.10;;;22.80;99.90;;;;;;5049561;28;20039;-81
2023/06/29 11:19:05;;;;;;;25.00;19.92;;;23.00;99.90;;;;;;5049543;28;20424;-79
2023/06/29 11:21:31;;;;;;;25.13;19.02;;;23.00;99.90;;;;;;5049319;28;20203;-79
2023/06/29 11:23:57;;;;;;;21.60;17.55;;;23.00;99.90;;;;;;5043177;28;20137;-80
2023/06/29 11:26:24;;;;;;;21.60;18.30;;;22.90;99.90;;;;;;5049737;28;20037;-79
2023/06/29 11:28:53;;;;;;;24.13;18.58;;;22.90;99.90;;;;;;5050028;28;20055;-80
2023/06/29 11:31:22;;;;;;;22.83;17.92;;;22.70;99.90;;;;;;5050368;28;20100;-79
2023/06/29 11:33:52;;;;;;;24.88;18.15;;;22.50;99.90;;;;;;5048952;28;20029;-79
2023/06/29 11:36:32;;;;;;;25.67;18.42;;;22.40;99.90;;;;;;5050395;28;20033;-79
2023/06/29 11:39:11;;;;;;;26.85;18.98;;;22.50;99.90;;;;;;5047346;28;20044;-79
2023/06/29 11:41:39;;;;;;;27.38;19.30;;;22.70;99.90;;;;;;5060778;28;20492;-79
2023/06/29 11:44:05;;;;;;;29.52;20.27;;;23.00;99.90;;;;;;5049138;28;20056;-80
2023/06/29 11:46:34;;;;;;;27.65;20.35;;;23.30;99.90;;;;;;5048971;28;20492;-80
2023/06/29 11:49:03;;;;;;;28.33;21.80;;;23.60;99.90;;;;;;5048676;28;20037;-79
2023/06/29 11:51:29;;;;;;;27.08;22.35;;;23.90;99.90;;;;;;5050851;28;20049;-81
2023/06/29 11:53:58;;;;;;;29.60;22.33;;;24.10;99.90;;;;;;5050789;28;20079;-80
2023/06/29 11:56:34;;;;;;;31.13;22.35;;;23.90;99.90;;;;;;5035546;28;20120;-80
2023/06/29 11:59:12;;;;;;;34.55;23.05;;;23.70;99.90;;;;;;5051756;28;20045;-81
2023/06/29 12:01:38;;;;;;;29.17;22.45;;;23.50;99.90;;;;;;5046434;28;20566;-80
2023/06/29 12:04:09;;;;;;;28.67;21.70;;;23.40;99.90;;;;;;5050563;28;20055;-79
2023/06/29 12:06:48;;;;;;;28.17;20.23;;;23.60;99.90;;;;;;5050607;28;20087;-81
2023/06/29 12:09:14;;;;;;;28.10;21.50;;;23.80;99.90;;;;;;5047414;28;20051;-80
2023/06/29 12:11:39;;;;;;;34.38;23.80;;;24.20;99.90;;;;;;5034101;28;20488;-80
2023/06/29 12:14:08;;;;;;;29.00;21.13;;;24.50;99.90;;;;;;5051771;28;20041;-80
2023/06/29 12:16:38;;;;;;;28.50;20.52;;;24.60;99.90;;;;;;5050503;28;20583;-79
2023/06/29 12:19:11;;;;;;;29.75;22.73;;;24.70;99.90;;;;;;5050145;28;20143;-80
2023/06/29 12:21:37;;;;;;;31.67;22.33;;;25.30;99.90;;;;;;5047743;28;20091;-79
2023/06/29 12:24:03;;;;;;;29.00;20.77;;;25.80;99.90;;;;;;5049809;28;21224;-80
2023/06/29 12:26:29;;;;;;;32.97;24.08;;;26.10;99.90;;;;;;5048118;28;20040;-80